LFBC 301530Z AUTO 04009KT 9999 +DZ OVC014 04/02 Q1018 TEMPO 2000 RADZ BKN008
LFBD 301530Z AUTO 03010KT 9999 -RA BKN012/// OVC019/// ///TCU 04/02 Q1018 TEMPO 4000 -RA OVC012